Time;durP1;ratioP1;P1;durP2;ratioP2;P2;SDS_P1;SDS_P2;PMS_P1;PMS_P2;Temp;Humidity;BMP_temperature;BMP_pressure;BME280_temperature;BME280_humidity;BME280_pressure;Samples;Min_cycle;Max_cycle;Signal;HPM_P1;HPM_P2
2022/03/22 00:01:21;;;;;;;113.50;58.20;;;;;;;7.52;36.63;102319.72;4919371;28;96760;-90
2022/03/22 00:03:48;;;;;;;109.03;54.97;;;;;;;7.48;36.89;102320.56;4932006;28;97186;-87
2022/03/22 00:06:13;;;;;;;101.85;55.33;;;;;;;6.88;36.24;102210.19;4921500;28;100883;-87
2022/03/22 00:08:39;;;;;;;105.30;55.03;;;;;;;7.46;36.36;102319.66;4923393;28;98067;-88
2022/03/22 00:11:04;;;;;;;103.72;53.05;;;;;;;7.47;36.09;102316.16;4923538;28;96686;-87
2022/03/22 00:13:31;;;;;;;107.97;52.70;;;;;;;7.60;35.75;102325.03;4923517;28;97077;-87
2022/03/22 00:15:57;;;;;;;97.07;52.35;;;;;;;7.28;35.97;102283.75;4923308;28;97952;-88
2022/03/22 00:18:23;;;;;;;98.47;52.27;;;;;;;7.08;36.09;102252.19;4925272;28;98209;-89
2022/03/22 00:20:49;;;;;;;108.10;52.47;;;;;;;7.42;36.06;102307.44;4929500;28;96718;-87
2022/03/22 00:23:18;;;;;;;98.35;50.15;;;;;;;7.40;36.04;102310.00;4916641;28;97455;-87
2022/03/22 00:25:44;;;;;;;97.72;51.30;;;;;;;7.46;35.98;102317.03;4921717;28;101292;-86
2022/03/22 00:28:09;;;;;;;98.18;49.80;;;;;;;7.40;36.25;102320.47;4916478;28;101160;-87
2022/03/22 00:30:35;;;;;;;95.87;52.03;;;;;;;7.28;36.22;102306.41;4916896;28;96958;-87
2022/03/22 00:33:05;;;;;;;94.25;50.40;;;;;;;7.30;36.37;102320.31;4911154;28;96970;-87
2022/03/22 00:35:35;;;;;;;98.38;49.53;;;;;;;7.14;36.50;102294.03;4910235;28;101274;-87
2022/03/22 00:38:03;;;;;;;92.68;48.15;;;;;;;7.34;36.32;102316.91;4923415;28;98502;-86
2022/03/22 00:40:29;;;;;;;99.90;51.90;;;;;;;7.16;36.61;102292.34;4923210;28;97902;-87
2022/03/22 00:42:56;;;;;;;104.03;50.63;;;;;;;7.23;36.67;102309.81;4947285;28;96788;-87
2022/03/22 00:45:32;;;;;;;103.00;50.13;;;;;;;7.20;36.45;102315.00;4903880;28;101108;-88
2022/03/22 00:47:58;;;;;;;94.65;47.50;;;;;;;7.00;36.23;102287.78;4909629;28;101340;-88
2022/03/22 00:50:27;;;;;;;99.10;50.08;;;;;;;7.23;37.03;102322.88;4917535;28;96965;-88
2022/03/22 00:52:54;;;;;;;91.50;46.20;;;;;;;7.20;36.74;102320.22;4913391;28;96837;-86
2022/03/22 00:55:23;;;;;;;98.20;50.65;;;;;;;7.13;36.94;102313.19;4914442;28;101540;-87
2022/03/22 00:57:50;;;;;;;85.80;47.50;;;;;;;7.09;36.76;102310.50;4917888;28;100686;-87
2022/03/22 01:00:16;;;;;;;100.85;50.88;;;;;;;7.05;37.62;102309.59;4922303;28;96785;-86
2022/03/22 01:02:49;;;;;;;91.30;48.22;;;;;;;6.98;37.19;102307.75;4906551;28;97850;-87
2022/03/22 01:05:17;;;;;;;98.23;49.37;;;;;;;7.00;37.06;102314.75;4922700;28;100792;-86
2022/03/22 01:07:45;;;;;;;89.40;45.97;;;;;;;6.99;37.12;102297.34;4922453;28;101524;-87
2022/03/22 01:10:12;;;;;;;97.57;51.63;;;;;;;6.96;37.14;102312.97;4922641;28;97239;-87
2022/03/22 01:12:39;;;;;;;89.50;45.53;;;;;;;6.81;37.37;102276.25;4938570;28;97033;-87
2022/03/22 01:15:10;;;;;;;95.80;48.93;;;;;;;6.90;37.61;102297.25;4934661;28;97290;-87
2022/03/22 01:17:37;;;;;;;93.57;48.60;;;;;;;6.79;37.74;102273.59;4909220;28;101087;-87
2022/03/22 01:20:06;;;;;;;95.57;49.63;;;;;;;6.93;37.96;102302.50;4922365;28;97193;-87
2022/03/22 01:22:32;;;;;;;94.20;47.60;;;;;;;6.77;38.21;102287.50;4909662;28;97233;-87
2022/03/22 01:24:59;;;;;;;90.73;48.30;;;;;;;6.66;38.50;102273.41;4929859;28;101071;-87
2022/03/22 01:27:26;;;;;;;92.57;49.27;;;;;;;6.80;38.93;102311.03;4921990;28;99989;-88
2022/03/22 01:29:52;;;;;;;86.72;45.08;;;;;;;6.76;38.08;102310.09;4922662;28;97171;-87
2022/03/22 01:32:18;;;;;;;99.40;47.80;;;;;;;6.77;38.27;102303.16;4903972;28;96953;-87
2022/03/22 01:34:43;;;;;;;88.93;47.40;;;;;;;6.64;38.26;102280.38;4921159;28;97557;-88
2022/03/22 01:37:10;;;;;;;92.70;44.67;;;;;;;6.55;38.25;102282.00;4900842;28;100979;-88
2022/03/22 01:39:36;;;;;;;94.10;46.23;;;;;;;6.45;38.06;102253.13;4939081;28;96761;-87
2022/03/22 01:42:03;;;;;;;95.17;46.77;;;;;;;6.57;38.16;102300.25;4921879;28;96798;-87
2022/03/22 01:44:29;;;;;;;87.00;45.80;;;;;;;6.51;37.95;102298.44;4916664;28;98522;-87
2022/03/22 01:47:00;;;;;;;88.20;46.27;;;;;;;6.33;38.47;102267.75;4902916;28;98339;-87
2022/03/22 01:49:25;;;;;;;89.73;45.10;;;;;;;6.33;38.38;102256.44;4902955;28;97168;-90
2022/03/22 01:51:52;;;;;;;91.37;46.37;;;;;;;6.40;38.60;102273.97;4906824;28;97337;-87
2022/03/22 01:54:18;;;;;;;86.67;46.83;;;;;;;6.43;38.83;102284.44;4904025;28;98669;-87
2022/03/22 01:56:44;;;;;;;84.63;45.53;;;;;;;6.46;38.98;102279.25;4909311;28;101419;-87
2022/03/22 01:59:10;;;;;;;92.07;47.20;;;;;;;6.42;39.11;102281.78;4902552;28;96768;-88
2022/03/22 02:07:06;;;;;;;88.93;44.60;;;;;;;6.26;39.35;102270.28;4914945;28;101341;-88
2022/03/22 02:09:32;;;;;;;91.83;45.73;;;;;;;6.25;39.30;102269.38;4918788;28;97134;-88
2022/03/22 02:11:58;;;;;;;87.93;45.63;;;;;;;6.22;39.34;102274.53;4902280;28;96828;-88
2022/03/22 02:14:24;;;;;;;89.37;45.40;;;;;;;6.19;39.44;102271.03;4901620;28;101322;-87
2022/03/22 02:16:51;;;;;;;77.80;40.23;;;;;;;6.22;38.90;102261.50;4910600;28;100522;-86
2022/03/22 02:19:16;;;;;;;75.53;39.73;;;;;;;6.21;38.64;102266.72;4934920;28;96797;-87
2022/03/22 02:21:42;;;;;;;90.10;45.03;;;;;;;6.20;38.76;102270.19;4886129;28;97228;-88
2022/03/22 02:24:08;;;;;;;84.00;41.87;;;;;;;6.16;38.78;102265.75;4887760;28;100291;-87
2022/03/22 02:26:34;;;;;;;95.27;46.17;;;;;;;6.00;38.94;102249.88;4904356;28;99886;-87
2022/03/22 02:29:00;;;;;;;88.33;42.27;;;;;;;5.95;39.26;102248.94;4918103;28;97024;-88
2022/03/22 02:31:29;;;;;;;70.03;36.23;;;;;;;6.03;38.31;102262.97;4901948;28;97048;-89
2022/03/22 02:33:55;;;;;;;91.40;42.17;;;;;;;5.86;39.32;102234.00;4905626;28;99065;-87
2022/03/22 02:36:21;;;;;;;93.07;44.53;;;;;;;6.04;39.27;102271.66;4885957;28;99872;-88
2022/03/22 02:38:48;;;;;;;90.37;43.47;;;;;;;5.84;39.12;102256.53;4902114;28;97067;-87
2022/03/22 02:41:18;;;;;;;91.03;41.80;;;;;;;5.95;39.24;102268.91;4902626;28;96830;-88
2022/03/22 02:43:45;;;;;;;82.83;40.50;;;;;;;5.94;39.48;102275.00;4885342;28;101436;-87
2022/03/22 02:46:11;;;;;;;93.70;41.30;;;;;;;5.85;39.35;102265.25;4886241;28;101202;-87
2022/03/22 02:48:37;;;;;;;77.37;38.20;;;;;;;5.89;38.92;102274.88;4901721;28;97093;-87
2022/03/22 02:51:03;;;;;;;66.40;35.10;;;;;;;6.01;38.55;102272.50;4881988;28;96918;-88
2022/03/22 02:53:29;;;;;;;77.83;38.77;;;;;;;5.92;38.79;102261.88;4884361;28;101487;-88
2022/03/22 02:55:54;;;;;;;72.47;34.73;;;;;;;6.05;38.51;102273.41;4901906;28;98688;-87
2022/03/22 02:58:20;;;;;;;64.23;32.93;;;;;;;5.84;38.67;102260.88;4902236;28;97073;-88
2022/03/22 03:00:45;;;;;;;64.20;33.63;;;;;;;5.97;38.74;102275.91;4918172;28;97491;-88
2022/03/22 03:03:11;;;;;;;56.27;29.07;;;;;;;5.99;38.53;102273.31;4901971;28;101325;-88
2022/03/22 03:05:38;;;;;;;62.70;30.87;;;;;;;5.93;38.48;102273.19;4901063;28;101595;-87
2022/03/22 03:08:04;;;;;;;62.97;31.03;;;;;;;5.98;38.58;102274.19;4901092;28;96782;-88
2022/03/22 03:10:30;;;;;;;60.03;31.00;;;;;;;5.99;38.82;102284.66;4886013;28;96819;-87
2022/03/22 03:13:01;;;;;;;64.90;33.00;;;;;;;5.87;38.59;102273.97;4901755;28;101657;-87
2022/03/22 03:15:27;;;;;;;60.30;29.20;;;;;;;5.96;38.58;102294.13;4899209;28;101137;-89
2022/03/22 03:17:52;;;;;;;56.33;29.20;;;;;;;5.90;38.46;102287.94;4901388;28;96721;-87
2022/03/22 03:20:18;;;;;;;54.80;29.00;;;;;;;5.42;38.84;102212.44;4901708;28;96902;-87
2022/03/22 03:22:43;;;;;;;56.07;30.00;;;;;;;5.84;38.65;102295.63;4885119;28;101576;-87
2022/03/22 03:25:09;;;;;;;64.27;32.93;;;;;;;5.56;38.92;102241.31;4900187;28;101268;-87
2022/03/22 03:27:36;;;;;;;54.93;27.87;;;;;;;5.38;39.12;102221.91;4901153;28;97030;-87
2022/03/22 03:30:04;;;;;;;54.17;28.57;;;;;;;5.80;39.21;102292.97;4900871;28;97151;-87
2022/03/22 03:32:31;;;;;;;68.10;32.07;;;;;;;5.75;39.64;102292.88;4882062;28;100993;-87
2022/03/22 03:34:57;;;;;;;59.10;30.00;;;;;;;5.73;39.53;102289.41;4884623;28;101437;-87
2022/03/22 03:37:28;;;;;;;64.73;31.97;;;;;;;5.43;39.48;102242.81;4902366;28;96796;-88
2022/03/22 03:39:53;;;;;;;62.80;32.57;;;;;;;5.58;39.58;102289.09;4901493;28;96795;-87
2022/03/22 03:42:19;;;;;;;62.37;30.53;;;;;;;5.67;39.45;102295.38;4898184;28;101621;-88
2022/03/22 03:47:29;;;;;;;52.37;28.33;;;;;;;5.55;40.01;102302.94;4938918;28;96796;-90
2022/03/22 03:49:59;;;;;;;67.00;29.40;;;;;;;5.52;39.97;102296.81;4918103;28;96961;-88
2022/03/22 03:52:31;;;;;;;60.80;28.37;;;;;;;5.23;39.96;102245.06;4920220;28;101556;-89
2022/03/22 03:54:57;;;;;;;68.47;30.25;;;;;;;5.48;40.11;102292.41;4920321;28;101331;-87
2022/03/22 03:57:24;;;;;;;61.40;29.47;;;;;;;5.57;39.86;102306.47;4929170;28;96862;-88
2022/03/22 03:59:50;;;;;;;58.63;30.73;;;;;;;5.25;40.35;102261.59;4920857;28;97225;-87
2022/03/22 04:02:16;;;;;;;61.00;29.20;;;;;;;5.29;40.19;102271.22;4923934;28;101180;-87
2022/03/22 04:04:42;;;;;;;59.93;28.67;;;;;;;5.50;39.94;102306.31;4906833;28;100845;-89
2022/03/22 04:07:09;;;;;;;58.90;27.80;;;;;;;5.38;40.22;102283.53;4904598;28;96868;-87
2022/03/22 04:09:36;;;;;;;62.40;26.90;;;;;;;5.45;40.51;102301.03;4917646;28;97125;-88
2022/03/22 04:12:03;;;;;;;52.13;26.77;;;;;;;5.38;40.32;102292.25;4910861;28;101342;-87
2022/03/22 04:14:29;;;;;;;53.80;27.03;;;;;;;5.42;40.47;102300.97;4921218;28;98295;-91
2022/03/22 04:16:57;;;;;;;58.17;28.33;;;;;;;5.27;40.56;102269.44;4919270;28;96870;-88
2022/03/22 04:19:27;;;;;;;62.80;28.97;;;;;;;5.14;40.53;102245.75;4928652;28;97060;-88
2022/03/22 04:21:53;;;;;;;57.10;28.03;;;;;;;5.40;39.97;102303.53;4935227;28;101752;-88
2022/03/22 04:24:19;;;;;;;59.90;29.53;;;;;;;5.28;40.30;102282.50;4923345;28;101007;-87
2022/03/22 04:26:46;;;;;;;57.80;27.70;;;;;;;4.95;40.69;102234.13;4953724;28;97866;-88
2022/03/22 04:34:43;;;;;;;55.47;28.60;;;;;;;5.10;40.62;102262.19;4925428;28;100864;-87
2022/03/22 04:37:12;;;;;;;57.60;29.30;;;;;;;5.29;40.79;102299.84;4939296;28;96801;-88
2022/03/22 04:39:39;;;;;;;60.07;29.17;;;;;;;5.25;40.56;102305.88;4938833;28;96907;-88
2022/03/22 04:42:05;;;;;;;54.60;28.73;;;;;;;5.25;40.64;102303.25;4906504;28;100250;-87
2022/03/22 04:44:30;;;;;;;58.40;27.37;;;;;;;4.96;40.38;102263.63;4942154;28;101166;-91
2022/03/22 04:46:56;;;;;;;60.57;29.63;;;;;;;5.19;40.59;102297.94;4921699;28;97237;-88
2022/03/22 04:49:23;;;;;;;58.07;30.57;;;;;;;5.19;40.86;102317.03;4919441;28;96909;-89
2022/03/22 04:57:17;;;;;;;54.17;28.17;;;;;;;5.15;40.51;102324.78;4933923;28;96695;-87
2022/03/22 04:59:43;;;;;;;55.10;29.10;;;;;;;5.19;40.67;102317.03;4922407;28;98690;-88
2022/03/22 05:02:09;;;;;;;52.90;28.23;;;;;;;5.07;40.56;102300.31;4919268;28;101316;-88
2022/03/22 05:04:35;;;;;;;59.43;29.20;;;;;;;5.13;40.95;102323.84;4905906;28;101940;-88
2022/03/22 05:07:02;;;;;;;57.43;29.00;;;;;;;5.07;40.75;102316.81;4922935;28;97030;-87
2022/03/22 05:09:28;;;;;;;54.63;29.17;;;;;;;5.15;40.61;102323.03;4922701;28;97014;-87
2022/03/22 05:11:58;;;;;;;59.07;29.60;;;;;;;4.91;41.09;102301.69;4938717;28;98537;-87
2022/03/22 05:14:24;;;;;;;54.70;28.90;;;;;;;5.09;40.84;102327.22;4906807;28;99743;-87
2022/03/22 05:16:49;;;;;;;62.40;29.00;;;;;;;5.07;41.29;102326.34;4920812;28;97022;-88
2022/03/22 05:19:16;;;;;;;61.63;31.20;;;;;;;5.16;40.85;102331.72;4922312;28;96914;-87
2022/03/22 05:21:41;;;;;;;59.97;32.23;;;;;;;4.99;41.28;102307.94;4921945;28;100235;-88
2022/03/22 05:24:08;;;;;;;61.60;31.50;;;;;;;4.93;41.25;102302.63;4919822;28;100279;-88
2022/03/22 05:26:34;;;;;;;61.27;30.93;;;;;;;4.91;41.02;102306.91;4943415;28;96545;-93
2022/03/22 05:29:04;;;;;;;66.43;31.63;;;;;;;4.99;41.28;102315.75;4929460;28;96922;-88
2022/03/22 05:31:30;;;;;;;51.80;29.20;;;;;;;5.04;41.21;102321.94;4906933;28;101170;-87
2022/03/22 05:33:56;;;;;;;65.07;34.30;;;;;;;5.16;40.89;102326.53;4914861;28;100353;-87
2022/03/22 05:36:22;;;;;;;57.50;31.57;;;;;;;4.98;41.08;102312.28;4919706;28;97091;-88
2022/03/22 05:38:48;;;;;;;60.67;33.00;;;;;;;4.81;41.55;102279.81;4938517;28;97220;-86
2022/03/22 05:41:13;;;;;;;58.03;31.33;;;;;;;5.14;41.17;102328.19;4922820;28;97885;-87
2022/03/22 05:43:39;;;;;;;65.77;33.33;;;;;;;5.17;41.55;102326.53;4905623;28;100872;-87
2022/03/22 05:46:05;;;;;;;61.97;32.17;;;;;;;5.23;41.40;102328.38;4907509;28;97248;-87
2022/03/22 05:48:31;;;;;;;59.17;31.83;;;;;;;5.44;40.99;102331.44;4909537;28;96967;-88
2022/03/22 05:50:57;;;;;;;66.43;34.17;;;;;;;5.08;40.48;102256.06;4899369;28;101463;-86
2022/03/22 05:53:23;;;;;;;57.00;31.37;;;;;;;5.37;40.28;102294.81;4918002;28;101257;-87
2022/03/22 05:55:48;;;;;;;64.90;34.47;;;;;;;5.66;40.55;102335.28;4919092;28;96790;-87
2022/03/22 05:58:14;;;;;;;60.83;32.33;;;;;;;5.67;40.37;102329.25;4922872;28;97196;-88
2022/03/22 06:00:40;;;;;;;62.63;31.67;;;;;;;5.68;40.19;102320.56;4912153;28;101081;-87
2022/03/22 06:03:05;;;;;;;72.70;34.03;;;;;;;5.87;40.38;102329.56;4904762;28;101496;-87
2022/03/22 06:05:31;;;;;;;66.60;34.07;;;;;;;5.94;39.99;102330.63;4921903;28;97035;-87
2022/03/22 06:07:58;;;;;;;65.97;32.70;;;;;;;6.03;40.55;102338.59;4921643;28;97138;-88
2022/03/22 06:10:25;;;;;;;59.73;31.13;;;;;;;6.22;40.17;102336.25;4904967;28;100483;-88
2022/03/22 06:12:54;;;;;;;64.50;34.63;;;;;;;6.29;40.21;102322.50;4903019;28;100961;-88
2022/03/22 06:15:24;;;;;;;68.20;34.87;;;;;;;6.49;39.97;102336.72;4937971;28;96801;-87
2022/03/22 06:17:58;;;;;;;62.87;34.50;;;;;;;6.52;40.37;102322.84;4927243;28;96912;-88
2022/03/22 06:20:32;;;;;;;64.37;34.80;;;;;;;6.80;39.77;102329.28;4895829;28;101398;-88
2022/03/22 06:22:59;;;;;;;72.17;36.87;;;;;;;6.99;39.38;102339.13;4931826;28;101823;-88
2022/03/22 06:25:25;;;;;;;66.33;35.60;;;;;;;7.13;38.71;102328.00;4920513;28;96940;-88
2022/03/22 06:27:52;;;;;;;66.77;36.33;;;;;;;7.43;38.74;102336.16;4917516;28;97206;-87
2022/03/22 06:30:19;;;;;;;64.20;34.77;;;;;;;7.47;38.64;102310.94;4896524;28;99970;-87
2022/03/22 06:32:50;;;;;;;68.57;35.37;;;;;;;7.57;38.40;102333.72;4902980;28;100988;-86
2022/03/22 06:35:27;;;;;;;72.15;35.22;;;;;;;7.48;38.38;102299.66;4928142;28;97160;-87
2022/03/22 06:37:54;;;;;;;81.72;38.17;;;;;;;7.84;38.03;102327.84;4896884;28;96994;-87
2022/03/22 06:40:21;;;;;;;72.90;37.85;;;;;;;8.09;37.78;102323.72;4931302;28;101347;-88
2022/03/22 06:42:47;;;;;;;66.82;36.60;;;;;;;8.23;37.44;102341.25;4900784;28;101353;-87
2022/03/22 06:45:14;;;;;;;67.65;36.78;;;;;;;8.33;37.53;102335.25;4912099;28;97398;-87
2022/03/22 06:47:41;;;;;;;68.47;37.03;;;;;;;8.53;37.14;102349.38;4933074;28;96817;-86
2022/03/22 06:50:08;;;;;;;67.30;38.05;;;;;;;8.52;37.13;102325.78;4911590;28;102419;-87
2022/03/22 06:52:34;;;;;;;72.78;39.30;;;;;;;8.76;36.71;102353.88;4916950;28;100318;-86
2022/03/22 06:55:00;;;;;;;72.47;40.08;;;;;;;8.97;36.50;102348.75;4946669;28;96906;-86
2022/03/22 06:57:28;;;;;;;72.70;41.78;;;;;;;9.11;36.21;102325.25;4932184;28;97681;-87
2022/03/22 06:59:58;;;;;;;83.28;41.67;;;;;;;9.30;35.95;102345.38;4915879;28;99003;-89
2022/03/22 07:02:24;;;;;;;78.70;41.40;;;;;;;9.02;36.07;102278.91;4928009;28;100881;-87
2022/03/22 07:04:51;;;;;;;76.75;41.15;;;;;;;9.61;36.11;102348.09;4915826;28;97801;-91
2022/03/22 07:07:17;;;;;;;71.05;41.03;;;;;;;9.28;35.31;102270.28;4944659;28;97169;-90
2022/03/22 07:09:43;;;;;;;73.57;42.25;;;;;;;9.41;35.13;102289.50;4919023;28;100235;-92
2022/03/22 07:12:10;;;;;;;77.13;40.65;;;;;;;10.04;35.15;102342.91;4926041;28;100994;-87
2022/03/22 07:14:38;;;;;;;77.45;39.40;;;;;;;10.33;35.01;102342.06;4913906;28;96792;-82
2022/03/22 07:17:05;;;;;;;78.68;42.08;;;;;;;10.57;34.73;102338.53;4917490;28;97693;-80
2022/03/22 07:19:30;;;;;;;74.78;40.38;;;;;;;10.68;34.35;102326.25;4912955;28;98000;-81
2022/03/22 07:21:57;;;;;;;71.70;39.75;;;;;;;10.90;34.12;102321.78;4946603;28;98081;-79
2022/03/22 07:24:23;;;;;;;70.93;41.10;;;;;;;11.18;34.13;102343.56;4916023;28;97260;-80
2022/03/22 07:26:49;;;;;;;72.28;40.90;;;;;;;11.41;34.06;102342.59;4916760;28;97314;-80
2022/03/22 07:29:14;;;;;;;78.35;41.72;;;;;;;11.69;34.00;102331.03;4918594;28;101374;-80
2022/03/22 07:31:41;;;;;;;75.13;38.97;;;;;;;12.12;33.23;102345.63;4899468;28;102318;-81
2022/03/22 07:34:11;;;;;;;74.00;41.25;;;;;;;12.23;32.41;102344.66;4916486;28;97422;-79
2022/03/22 07:36:40;;;;;;;77.38;41.00;;;;;;;12.34;32.53;102334.03;4902735;28;96996;-81
2022/03/22 07:39:06;;;;;;;68.45;39.28;;;;;;;12.53;31.74;102342.63;4937785;28;98182;-79
2022/03/22 07:41:36;;;;;;;65.60;37.33;;;;;;;12.65;32.16;102308.25;4910401;28;101825;-82
2022/03/22 07:44:06;;;;;;;69.97;40.25;;;;;;;13.00;31.58;102303.44;4955600;28;96805;-96
2022/03/22 07:46:32;;;;;;;68.63;40.17;;;;;;;13.26;31.67;102309.28;4940066;28;97254;-94
2022/03/22 07:52:58;;;;;;;69.18;39.88;;;;;;;13.58;31.51;102336.97;4905748;28;99757;-83
2022/03/22 07:54:31;;;;;;;71.28;41.05;;;;;;;14.00;31.07;102350.41;4936355;28;96830;-82
2022/03/22 07:56:57;;;;;;;73.20;42.72;;;;;;;14.08;30.75;102329.16;4905763;28;97273;-82
2022/03/22 07:59:24;;;;;;;66.07;39.58;;;;;;;14.22;30.82;102317.47;4914932;28;101270;-82
2022/03/22 08:01:51;;;;;;;67.07;38.45;;;;;;;14.60;30.46;102339.72;4906288;28;101109;-79
2022/03/22 08:04:17;;;;;;;65.13;39.20;;;;;;;14.89;30.18;102327.66;4920329;28;97266;-77
2022/03/22 08:06:43;;;;;;;63.55;35.05;;;;;;;15.26;29.58;102342.78;4919332;28;97030;-79
2022/03/22 08:09:08;;;;;;;58.08;35.70;;;;;;;15.50;29.09;102339.59;4923359;28;100968;-82
2022/03/22 08:11:34;;;;;;;69.15;39.13;;;;;;;15.73;28.80;102338.22;4891654;28;101671;-80
2022/03/22 08:14:01;;;;;;;58.63;37.03;;;;;;;15.84;28.26;102313.22;4918288;28;97093;-82
2022/03/22 08:16:27;;;;;;;60.00;36.67;;;;;;;16.09;28.56;102339.13;4919041;28;96990;-83
2022/03/22 08:18:53;;;;;;;62.58;37.30;;;;;;;16.37;27.92;102335.75;4917436;28;101856;-83
2022/03/22 08:21:19;;;;;;;62.45;36.03;;;;;;;16.25;27.60;102331.63;4918798;28;97417;-82
2022/03/22 08:23:44;;;;;;;57.45;36.90;;;;;;;16.52;27.70;102315.00;4903912;28;97241;-83
2022/03/22 08:26:10;;;;;;;57.63;36.10;;;;;;;16.86;27.51;102330.00;4921011;28;97078;-85
2022/03/22 08:28:36;;;;;;;57.65;35.28;;;;;;;16.49;27.29;102312.44;4917958;28;101893;-86
2022/03/22 08:31:02;;;;;;;52.28;33.55;;;;;;;16.90;26.98;102318.41;4909291;28;99520;-85
2022/03/22 08:33:28;;;;;;;56.78;34.72;;;;;;;17.47;27.30;102322.00;4903276;28;96859;-79
2022/03/22 08:35:53;;;;;;;52.38;33.67;;;;;;;17.73;26.23;102307.88;4925209;28;97245;-79
2022/03/22 08:38:21;;;;;;;53.88;33.00;;;;;;;18.10;25.91;102317.34;4934349;28;102002;-79
2022/03/22 08:40:48;;;;;;;52.05;33.72;;;;;;;18.24;25.94;102309.75;4910372;28;101545;-80
2022/03/22 08:43:13;;;;;;;47.50;31.45;;;;;;;18.41;24.94;102297.63;4900356;28;96850;-79
2022/03/22 08:45:39;;;;;;;45.42;30.65;;;;;;;18.57;24.79;102296.19;4901210;28;97403;-79
2022/03/22 08:48:14;;;;;;;46.30;30.25;;;;;;;18.81;24.74;102315.72;4890507;28;101772;-86
2022/03/22 08:50:42;;;;;;;44.28;29.77;;;;;;;18.91;24.77;102287.00;4906417;28;100733;-85
2022/03/22 08:53:09;;;;;;;44.05;29.58;;;;;;;19.31;24.37;102312.03;4903028;28;96754;-77
2022/03/22 08:55:35;;;;;;;47.45;29.55;;;;;;;19.53;24.33;102280.97;4906974;28;97267;-77
2022/03/22 08:58:06;;;;;;;44.72;28.73;;;;;;;19.68;23.98;102296.34;4902460;28;101107;-84
2022/03/22 09:00:33;;;;;;;42.97;28.77;;;;;;;19.92;23.75;102292.75;4902354;28;101311;-77
2022/03/22 09:02:59;;;;;;;50.97;30.63;;;;;;;20.06;23.59;102298.34;4879594;28;97570;-84
2022/03/22 09:08:09;;;;;;;47.28;28.42;;;;;;;20.33;22.94;102289.19;4926724;28;100460;-81
2022/03/22 09:10:36;;;;;;;39.50;27.90;;;;;;;20.15;22.93;102263.28;4914191;28;98577;-76
2022/03/22 09:13:02;;;;;;;45.47;27.52;;;;;;;20.52;22.67;102275.91;4896689;28;97885;-79
2022/03/22 09:15:29;;;;;;;42.95;27.88;;;;;;;20.87;22.59;102283.25;4914154;28;96943;-79
2022/03/22 09:17:56;;;;;;;38.30;28.38;;;;;;;20.99;22.01;102277.31;4897045;28;101930;-79
2022/03/22 09:20:22;;;;;;;36.08;25.27;;;;;;;20.66;22.09;102272.63;4896928;28;99498;-79
2022/03/22 09:22:49;;;;;;;42.25;25.88;;;;;;;21.22;22.05;102279.75;4928479;28;96869;-80
2022/03/22 09:25:16;;;;;;;47.00;26.85;;;;;;;21.15;21.79;102275.66;4898097;28;97374;-80
2022/03/22 09:27:43;;;;;;;41.28;27.42;;;;;;;21.18;21.44;102264.84;4878387;28;101341;-81
2022/03/22 09:30:10;;;;;;;36.65;26.10;;;;;;;21.65;21.33;102266.16;4891233;28;101484;-80
2022/03/22 09:32:36;;;;;;;39.75;25.10;;;;;;;21.82;20.74;102268.00;4880160;28;97438;-79
2022/03/22 09:35:07;;;;;;;38.97;24.92;;;;;;;21.80;20.78;102261.84;4894713;28;97689;-79
2022/03/22 09:37:34;;;;;;;34.60;22.67;;;;;;;21.91;20.28;102265.69;4897089;28;101222;-79
2022/03/22 09:39:59;;;;;;;30.90;21.35;;;;;;;21.75;19.97;102256.72;4894013;28;97872;-79
2022/03/22 09:42:27;;;;;;;28.75;20.17;;;;;;;21.85;19.85;102251.78;4907842;28;97206;-80
2022/03/22 09:44:53;;;;;;;34.53;22.52;;;;;;;21.75;20.18;102256.72;4909630;28;97574;-75
2022/03/22 09:47:19;;;;;;;34.88;22.88;;;;;;;21.86;20.19;102262.38;4900458;28;101130;-75
2022/03/22 09:49:45;;;;;;;35.83;24.20;;;;;;;22.00;20.30;102242.13;4901047;28;101565;-75
2022/03/22 09:52:11;;;;;;;32.22;24.52;;;;;;;22.17;19.71;102251.94;4923224;28;96889;-74
2022/03/22 09:54:39;;;;;;;34.53;24.52;;;;;;;22.33;20.01;102259.09;4934700;28;97302;-76
2022/03/22 09:57:05;;;;;;;33.80;24.80;;;;;;;22.27;20.05;102248.72;4928297;28;101685;-76
2022/03/22 09:59:33;;;;;;;40.00;25.58;;;;;;;22.50;20.38;102250.16;4930349;28;97618;-75
2022/03/22 10:02:04;;;;;;;32.47;24.25;;;;;;;22.71;20.27;102244.59;4917950;28;97082;-75
2022/03/22 10:04:40;;;;;;;34.55;24.60;;;;;;;22.79;20.23;102237.88;4915184;28;96941;-75
2022/03/22 10:07:08;;;;;;;33.30;25.02;;;;;;;22.88;19.93;102227.59;4920161;28;102143;-75
2022/03/22 10:09:39;;;;;;;32.55;23.38;;;;;;;22.77;19.54;102236.22;4913734;28;101428;-75
2022/03/22 10:12:07;;;;;;;37.83;23.30;;;;;;;22.87;19.58;102237.44;4918074;28;96974;-75
2022/03/22 10:14:38;;;;;;;34.13;25.60;;;;;;;22.88;19.62;102241.84;4917668;28;97133;-74
2022/03/22 10:17:09;;;;;;;35.80;25.47;;;;;;;22.74;19.77;102236.38;4901238;28;101482;-75
2022/03/22 10:19:41;;;;;;;32.53;23.33;;;;;;;22.56;19.93;102212.34;4934054;28;101007;-74
2022/03/22 10:22:10;;;;;;;31.27;21.65;;;;;;;22.75;19.85;102233.63;4918209;28;97238;-75
2022/03/22 10:24:45;;;;;;;26.95;20.10;;;;;;;22.53;19.41;102235.75;4919154;28;96904;-74
2022/03/22 10:27:23;;;;;;;22.42;17.23;;;;;;;22.54;18.64;102227.66;4902420;28;100926;-74
2022/03/22 10:29:49;;;;;;;21.58;16.75;;;;;;;21.98;19.24;102236.84;4917397;28;101570;-74
2022/03/22 10:32:16;;;;;;;21.15;14.65;;;;;;;21.63;19.02;102228.81;4918159;28;97101;-73
2022/03/22 10:34:42;;;;;;;24.35;17.45;;;;;;;21.65;19.42;102234.09;4897464;28;98007;-77
2022/03/22 10:37:08;;;;;;;24.58;17.95;;;;;;;21.33;19.69;102239.19;4933450;28;98139;-74
2022/03/22 10:39:35;;;;;;;24.33;17.77;;;;;;;21.09;19.39;102216.34;4915587;28;101328;-81
2022/03/22 10:42:06;;;;;;;27.70;17.10;;;;;;;21.01;19.56;102230.06;4916822;28;97068;-83
2022/03/22 10:44:35;;;;;;;23.67;16.42;;;;;;;20.87;19.49;102209.38;4915341;28;97628;-83
2022/03/22 10:47:02;;;;;;;20.65;14.40;;;;;;;20.88;18.89;102220.91;4915770;28;98074;-81
2022/03/22 10:49:28;;;;;;;22.45;16.70;;;;;;;20.62;19.40;102209.63;4902004;28;101869;-81
2022/03/22 10:51:54;;;;;;;26.45;16.83;;;;;;;20.28;19.44;102194.31;4915935;28;97437;-81
2022/03/22 10:54:21;;;;;;;25.27;16.67;;;;;;;20.32;19.70;102212.75;4916744;28;97138;-83
2022/03/22 10:56:53;;;;;;;26.02;16.63;;;;;;;20.24;19.78;102211.38;4912041;28;101838;-82
2022/03/22 10:59:21;;;;;;;28.50;18.08;;;;;;;20.19;20.19;102187.59;4915570;28;101612;-82
2022/03/22 11:01:48;;;;;;;21.83;16.63;;;;;;;19.95;20.37;102210.84;4934547;28;97109;-83
2022/03/22 11:04:15;;;;;;;26.58;17.90;;;;;;;19.81;20.51;102213.25;4904287;28;97250;-82
2022/03/22 11:06:42;;;;;;;24.13;16.63;;;;;;;19.64;20.76;102182.84;4916647;28;98303;-82
2022/03/22 11:09:09;;;;;;;16.45;11.60;;;;;;;19.53;20.10;102195.75;4898457;28;100315;-82
2022/03/22 11:11:35;;;;;;;28.88;13.90;;;;;;;19.00;20.22;102201.47;4915715;28;97391;-83
2022/03/22 11:14:02;;;;;;;20.25;13.70;;;;;;;19.02;20.40;102188.94;4901057;28;97222;-79
2022/03/22 11:16:30;;;;;;;20.92;13.90;;;;;;;18.95;20.64;102174.16;4913980;28;101378;-77
2022/03/22 11:18:59;;;;;;;18.38;13.32;;;;;;;18.88;20.04;102172.66;4924137;28;97881;-78
2022/03/22 11:21:26;;;;;;;20.58;13.65;;;;;;;18.88;20.21;102197.50;4916416;28;96730;-82
2022/03/22 11:24:09;;;;;;;21.42;14.25;;;;;;;18.63;20.60;102178.06;4922251;28;96887;-82
2022/03/22 11:26:39;;;;;;;15.38;11.23;;;;;;;18.67;20.33;102187.63;4927529;28;98507;-76
2022/03/22 11:29:05;;;;;;;18.23;12.02;;;;;;;18.48;19.99;102184.84;4940034;28;97698;-75
2022/03/22 11:31:30;;;;;;;16.27;11.27;;;;;;;18.39;20.19;102177.22;4925890;28;96737;-89
2022/03/22 11:34:11;;;;;;;17.60;12.57;;;;;;;18.40;20.59;102177.13;4914540;28;97266;-89
2022/03/22 11:36:47;;;;;;;20.23;14.85;;;;;;;18.42;20.90;102179.75;4934929;28;97755;-87